sensor_id;sensor_type;location;lat;lon;timestamp;P1;durP1;ratioP1;P2;durP2;ratioP2
64795;SDS011;51229;51.980;6.722;2023-03-03T00:00:59;38.00;;;14.68;;
64795;SDS011;51229;51.980;6.722;2023-03-03T00:03:25;36.63;;;14.07;;
64795;SDS011;51229;51.980;6.722;2023-03-03T00:05:51;43.45;;;16.83;;
64795;SDS011;51229;51.980;6.722;2023-03-03T00:08:18;44.75;;;16.73;;
64795;SDS011;51229;51.980;6.722;2023-03-03T00:10:44;39.58;;;13.63;;
64795;SDS011;51229;51.980;6.722;2023-03-03T00:13:14;44.92;;;15.82;;
64795;SDS011;51229;51.980;6.722;2023-03-03T00:15:41;39.95;;;15.15;;
64795;SDS011;51229;51.980;6.722;2023-03-03T00:18:21;35.97;;;12.98;;
64795;SDS011;51229;51.980;6.722;2023-03-03T00:20:53;37.55;;;14.50;;
64795;SDS011;51229;51.980;6.722;2023-03-03T00:23:30;42.85;;;17.55;;
64795;SDS011;51229;51.980;6.722;2023-03-03T00:26:01;40.97;;;15.93;;
64795;SDS011;51229;51.980;6.722;2023-03-03T00:28:45;36.22;;;14.40;;
64795;SDS011;51229;51.980;6.722;2023-03-03T00:31:21;42.28;;;15.80;;
64795;SDS011;51229;51.980;6.722;2023-03-03T00:33:54;40.60;;;16.95;;
64795;SDS011;51229;51.980;6.722;2023-03-03T00:36:22;39.65;;;15.32;;
64795;SDS011;51229;51.980;6.722;2023-03-03T00:38:57;42.28;;;14.10;;
64795;SDS011;51229;51.980;6.722;2023-03-03T00:41:41;38.70;;;14.32;;
64795;SDS011;51229;51.980;6.722;2023-03-03T00:49:52;38.85;;;15.13;;
64795;SDS011;51229;51.980;6.722;2023-03-03T00:52:20;34.05;;;12.40;;
64795;SDS011;51229;51.980;6.722;2023-03-03T00:54:51;38.05;;;14.25;;
64795;SDS011;51229;51.980;6.722;2023-03-03T00:57:17;32.15;;;11.77;;
64795;SDS011;51229;51.980;6.722;2023-03-03T00:59:43;32.80;;;13.63;;
64795;SDS011;51229;51.980;6.722;2023-03-03T01:02:10;38.28;;;15.73;;
64795;SDS011;51229;51.980;6.722;2023-03-03T01:04:35;39.88;;;13.73;;
64795;SDS011;51229;51.980;6.722;2023-03-03T01:07:01;31.70;;;13.20;;
64795;SDS011;51229;51.980;6.722;2023-03-03T01:09:27;33.65;;;13.90;;
64795;SDS011;51229;51.980;6.722;2023-03-03T01:11:54;35.47;;;14.95;;
64795;SDS011;51229;51.980;6.722;2023-03-03T01:14:20;35.70;;;13.65;;
64795;SDS011;51229;51.980;6.722;2023-03-03T01:16:46;35.75;;;13.85;;
64795;SDS011;51229;51.980;6.722;2023-03-03T01:19:11;33.63;;;14.50;;
64795;SDS011;51229;51.980;6.722;2023-03-03T01:21:37;34.60;;;14.10;;
64795;SDS011;51229;51.980;6.722;2023-03-03T01:24:04;36.65;;;15.88;;
64795;SDS011;51229;51.980;6.722;2023-03-03T01:26:30;32.10;;;13.93;;
64795;SDS011;51229;51.980;6.722;2023-03-03T01:28:57;30.92;;;14.02;;
64795;SDS011;51229;51.980;6.722;2023-03-03T01:31:23;31.48;;;13.27;;
64795;SDS011;51229;51.980;6.722;2023-03-03T01:33:48;32.05;;;13.57;;
64795;SDS011;51229;51.980;6.722;2023-03-03T01:36:14;32.92;;;14.68;;
64795;SDS011;51229;51.980;6.722;2023-03-03T01:38:40;32.70;;;14.15;;
64795;SDS011;51229;51.980;6.722;2023-03-03T01:41:05;28.50;;;12.23;;
64795;SDS011;51229;51.980;6.722;2023-03-03T01:43:32;28.35;;;12.98;;
64795;SDS011;51229;51.980;6.722;2023-03-03T01:51:01;31.40;;;13.02;;
64795;SDS011;51229;51.980;6.722;2023-03-03T01:54:04;32.67;;;12.63;;
64795;SDS011;51229;51.980;6.722;2023-03-03T01:56:23;30.95;;;12.98;;
64795;SDS011;51229;51.980;6.722;2023-03-03T01:58:56;30.40;;;13.05;;
64795;SDS011;51229;51.980;6.722;2023-03-03T02:01:35;31.33;;;12.93;;
64795;SDS011;51229;51.980;6.722;2023-03-03T02:04:01;33.60;;;15.10;;
64795;SDS011;51229;51.980;6.722;2023-03-03T02:06:29;28.80;;;12.85;;
64795;SDS011;51229;51.980;6.722;2023-03-03T02:09:01;29.67;;;13.07;;
64795;SDS011;51229;51.980;6.722;2023-03-03T02:11:32;31.23;;;11.80;;
64795;SDS011;51229;51.980;6.722;2023-03-03T02:14:01;27.95;;;12.60;;
64795;SDS011;51229;51.980;6.722;2023-03-03T02:16:27;33.85;;;13.90;;
64795;SDS011;51229;51.980;6.722;2023-03-03T02:18:56;29.02;;;12.32;;
64795;SDS011;51229;51.980;6.722;2023-03-03T02:21:22;25.15;;;12.13;;
64795;SDS011;51229;51.980;6.722;2023-03-03T02:26:36;32.60;;;13.10;;
64795;SDS011;51229;51.980;6.722;2023-03-03T02:29:07;28.83;;;12.45;;
64795;SDS011;51229;51.980;6.722;2023-03-03T02:31:35;29.52;;;12.52;;
64795;SDS011;51229;51.980;6.722;2023-03-03T02:34:05;28.20;;;11.73;;
64795;SDS011;51229;51.980;6.722;2023-03-03T02:36:36;34.65;;;14.15;;
64795;SDS011;51229;51.980;6.722;2023-03-03T02:39:06;37.72;;;14.70;;
64795;SDS011;51229;51.980;6.722;2023-03-03T02:42:55;30.65;;;13.55;;
64795;SDS011;51229;51.980;6.722;2023-03-03T02:45:59;27.25;;;12.60;;
64795;SDS011;51229;51.980;6.722;2023-03-03T02:49:02;31.42;;;13.25;;
64795;SDS011;51229;51.980;6.722;2023-03-03T02:52:04;30.40;;;12.68;;
64795;SDS011;51229;51.980;6.722;2023-03-03T02:54:37;29.20;;;12.68;;
64795;SDS011;51229;51.980;6.722;2023-03-03T02:57:03;32.63;;;13.77;;
64795;SDS011;51229;51.980;6.722;2023-03-03T02:59:36;30.98;;;13.10;;
64795;SDS011;51229;51.980;6.722;2023-03-03T03:02:12;30.58;;;12.68;;
64795;SDS011;51229;51.980;6.722;2023-03-03T03:04:43;30.70;;;12.70;;
64795;SDS011;51229;51.980;6.722;2023-03-03T03:07:22;31.33;;;14.32;;
64795;SDS011;51229;51.980;6.722;2023-03-03T03:09:48;29.30;;;12.93;;
64795;SDS011;51229;51.980;6.722;2023-03-03T03:12:14;28.77;;;12.73;;
64795;SDS011;51229;51.980;6.722;2023-03-03T03:14:43;28.67;;;13.40;;
64795;SDS011;51229;51.980;6.722;2023-03-03T03:17:09;29.10;;;12.23;;
64795;SDS011;51229;51.980;6.722;2023-03-03T03:19:35;30.13;;;13.82;;
64795;SDS011;51229;51.980;6.722;2023-03-03T03:22:01;27.88;;;12.38;;
64795;SDS011;51229;51.980;6.722;2023-03-03T03:24:28;32.80;;;13.48;;
64795;SDS011;51229;51.980;6.722;2023-03-03T03:27:00;28.85;;;13.38;;
64795;SDS011;51229;51.980;6.722;2023-03-03T03:29:26;30.70;;;12.95;;
64795;SDS011;51229;51.980;6.722;2023-03-03T03:31:52;30.60;;;12.98;;
64795;SDS011;51229;51.980;6.722;2023-03-03T03:34:18;31.80;;;14.10;;
64795;SDS011;51229;51.980;6.722;2023-03-03T03:36:44;24.33;;;9.60;;
64795;SDS011;51229;51.980;6.722;2023-03-03T03:39:11;31.42;;;12.60;;
64795;SDS011;51229;51.980;6.722;2023-03-03T03:41:43;28.40;;;11.20;;
64795;SDS011;51229;51.980;6.722;2023-03-03T03:44:09;32.95;;;13.60;;
64795;SDS011;51229;51.980;6.722;2023-03-03T03:46:36;31.95;;;14.82;;
64795;SDS011;51229;51.980;6.722;2023-03-03T03:49:02;32.15;;;13.73;;
64795;SDS011;51229;51.980;6.722;2023-03-03T03:51:28;27.77;;;11.52;;
64795;SDS011;51229;51.980;6.722;2023-03-03T03:53:54;30.70;;;13.75;;
64795;SDS011;51229;51.980;6.722;2023-03-03T03:56:19;29.10;;;11.40;;
64795;SDS011;51229;51.980;6.722;2023-03-03T03:58:49;35.78;;;14.45;;
64795;SDS011;51229;51.980;6.722;2023-03-03T04:01:15;33.47;;;13.82;;
64795;SDS011;51229;51.980;6.722;2023-03-03T04:03:45;33.83;;;14.05;;
64795;SDS011;51229;51.980;6.722;2023-03-03T04:06:16;30.38;;;12.95;;
64795;SDS011;51229;51.980;6.722;2023-03-03T04:08:42;29.52;;;12.57;;
64795;SDS011;51229;51.980;6.722;2023-03-03T04:11:09;29.15;;;12.90;;
64795;SDS011;51229;51.980;6.722;2023-03-03T04:13:35;32.50;;;13.45;;
64795;SDS011;51229;51.980;6.722;2023-03-03T04:16:04;30.08;;;12.38;;
64795;SDS011;51229;51.980;6.722;2023-03-03T04:18:30;29.52;;;12.02;;
64795;SDS011;51229;51.980;6.722;2023-03-03T04:20:57;32.63;;;11.88;;
64795;SDS011;51229;51.980;6.722;2023-03-03T04:23:24;31.70;;;12.88;;
64795;SDS011;51229;51.980;6.722;2023-03-03T04:25:50;31.52;;;11.38;;
64795;SDS011;51229;51.980;6.722;2023-03-03T04:28:17;28.98;;;12.82;;
64795;SDS011;51229;51.980;6.722;2023-03-03T04:30:43;35.78;;;13.25;;
64795;SDS011;51229;51.980;6.722;2023-03-03T04:33:09;32.35;;;12.43;;
64795;SDS011;51229;51.980;6.722;2023-03-03T04:35:37;31.90;;;13.38;;
64795;SDS011;51229;51.980;6.722;2023-03-03T04:38:03;30.98;;;11.98;;
64795;SDS011;51229;51.980;6.722;2023-03-03T04:40:30;32.53;;;12.57;;
64795;SDS011;51229;51.980;6.722;2023-03-03T04:42:57;30.73;;;12.40;;
64795;SDS011;51229;51.980;6.722;2023-03-03T04:45:23;30.02;;;12.43;;
64795;SDS011;51229;51.980;6.722;2023-03-03T04:47:49;31.17;;;13.18;;
64795;SDS011;51229;51.980;6.722;2023-03-03T04:50:15;27.70;;;11.52;;
64795;SDS011;51229;51.980;6.722;2023-03-03T04:52:41;27.80;;;10.90;;
64795;SDS011;51229;51.980;6.722;2023-03-03T04:55:08;30.85;;;11.88;;
64795;SDS011;51229;51.980;6.722;2023-03-03T04:57:35;30.52;;;11.43;;
64795;SDS011;51229;51.980;6.722;2023-03-03T05:00:01;25.13;;;10.32;;
64795;SDS011;51229;51.980;6.722;2023-03-03T05:02:28;36.03;;;12.73;;
64795;SDS011;51229;51.980;6.722;2023-03-03T05:04:54;30.63;;;12.52;;
64795;SDS011;51229;51.980;6.722;2023-03-03T05:07:20;28.02;;;11.25;;
64795;SDS011;51229;51.980;6.722;2023-03-03T05:09:45;30.63;;;11.82;;
64795;SDS011;51229;51.980;6.722;2023-03-03T05:12:11;34.22;;;12.05;;
64795;SDS011;51229;51.980;6.722;2023-03-03T05:14:37;32.85;;;12.77;;
64795;SDS011;51229;51.980;6.722;2023-03-03T05:17:03;26.80;;;11.07;;
64795;SDS011;51229;51.980;6.722;2023-03-03T05:19:30;29.27;;;11.68;;
64795;SDS011;51229;51.980;6.722;2023-03-03T05:21:55;29.23;;;11.30;;
64795;SDS011;51229;51.980;6.722;2023-03-03T05:24:21;30.90;;;12.55;;
64795;SDS011;51229;51.980;6.722;2023-03-03T05:26:47;30.40;;;11.52;;
64795;SDS011;51229;51.980;6.722;2023-03-03T05:29:14;24.75;;;10.20;;
64795;SDS011;51229;51.980;6.722;2023-03-03T05:31:40;30.05;;;11.80;;
64795;SDS011;51229;51.980;6.722;2023-03-03T05:34:06;27.88;;;11.75;;
64795;SDS011;51229;51.980;6.722;2023-03-03T05:36:32;30.17;;;12.88;;
64795;SDS011;51229;51.980;6.722;2023-03-03T05:38:57;27.25;;;11.88;;
64795;SDS011;51229;51.980;6.722;2023-03-03T05:41:23;30.40;;;11.63;;
64795;SDS011;51229;51.980;6.722;2023-03-03T05:43:52;26.08;;;9.98;;
64795;SDS011;51229;51.980;6.722;2023-03-03T05:46:18;31.20;;;12.10;;
64795;SDS011;51229;51.980;6.722;2023-03-03T05:49:00;29.27;;;11.63;;
64795;SDS011;51229;51.980;6.722;2023-03-03T05:51:29;28.08;;;10.95;;
64795;SDS011;51229;51.980;6.722;2023-03-03T05:53:55;30.13;;;11.60;;
64795;SDS011;51229;51.980;6.722;2023-03-03T05:56:31;27.58;;;11.38;;
64795;SDS011;51229;51.980;6.722;2023-03-03T05:59:03;27.35;;;11.10;;
64795;SDS011;51229;51.980;6.722;2023-03-03T06:01:29;30.65;;;11.57;;
64795;SDS011;51229;51.980;6.722;2023-03-03T06:03:56;30.50;;;12.05;;
64795;SDS011;51229;51.980;6.722;2023-03-03T06:06:21;27.85;;;12.10;;
64795;SDS011;51229;51.980;6.722;2023-03-03T06:08:47;28.52;;;11.27;;
64795;SDS011;51229;51.980;6.722;2023-03-03T06:11:13;26.08;;;11.73;;
64795;SDS011;51229;51.980;6.722;2023-03-03T06:13:41;28.70;;;11.45;;
64795;SDS011;51229;51.980;6.722;2023-03-03T06:16:06;28.40;;;12.38;;
64795;SDS011;51229;51.980;6.722;2023-03-03T06:18:32;27.75;;;12.73;;
64795;SDS011;51229;51.980;6.722;2023-03-03T06:20:58;25.98;;;11.13;;
64795;SDS011;51229;51.980;6.722;2023-03-03T06:23:23;32.15;;;12.45;;
64795;SDS011;51229;51.980;6.722;2023-03-03T06:25:49;31.70;;;13.13;;
64795;SDS011;51229;51.980;6.722;2023-03-03T06:28:15;32.35;;;12.57;;
64795;SDS011;51229;51.980;6.722;2023-03-03T06:30:40;34.33;;;16.88;;
64795;SDS011;51229;51.980;6.722;2023-03-03T06:33:06;33.17;;;14.07;;
64795;SDS011;51229;51.980;6.722;2023-03-03T06:35:31;28.92;;;11.80;;
64795;SDS011;51229;51.980;6.722;2023-03-03T06:37:57;27.85;;;12.10;;
64795;SDS011;51229;51.980;6.722;2023-03-03T06:40:23;28.67;;;10.60;;
64795;SDS011;51229;51.980;6.722;2023-03-03T06:42:48;30.63;;;12.00;;
64795;SDS011;51229;51.980;6.722;2023-03-03T06:45:14;27.90;;;11.60;;
64795;SDS011;51229;51.980;6.722;2023-03-03T06:47:40;29.77;;;11.95;;
64795;SDS011;51229;51.980;6.722;2023-03-03T06:50:06;27.90;;;10.93;;
64795;SDS011;51229;51.980;6.722;2023-03-03T06:52:34;27.73;;;10.98;;
64795;SDS011;51229;51.980;6.722;2023-03-03T06:55:00;29.83;;;11.18;;
64795;SDS011;51229;51.980;6.722;2023-03-03T06:57:34;31.45;;;13.07;;
64795;SDS011;51229;51.980;6.722;2023-03-03T07:02:41;29.67;;;12.60;;
64795;SDS011;51229;51.980;6.722;2023-03-03T07:05:13;26.65;;;11.85;;
64795;SDS011;51229;51.980;6.722;2023-03-03T07:07:40;25.50;;;10.88;;
64795;SDS011;51229;51.980;6.722;2023-03-03T07:10:12;29.40;;;11.68;;
64795;SDS011;51229;51.980;6.722;2023-03-03T07:12:45;30.40;;;13.52;;
64795;SDS011;51229;51.980;6.722;2023-03-03T07:15:12;32.88;;;13.00;;
64795;SDS011;51229;51.980;6.722;2023-03-03T07:17:58;29.63;;;11.88;;
64795;SDS011;51229;51.980;6.722;2023-03-03T07:20:31;34.85;;;13.48;;
64795;SDS011;51229;51.980;6.722;2023-03-03T07:23:00;29.63;;;12.48;;
64795;SDS011;51229;51.980;6.722;2023-03-03T07:25:33;31.13;;;13.57;;
64795;SDS011;51229;51.980;6.722;2023-03-03T07:28:06;25.92;;;10.68;;
64795;SDS011;51229;51.980;6.722;2023-03-03T07:30:44;28.25;;;11.93;;
64795;SDS011;51229;51.980;6.722;2023-03-03T07:33:33;26.58;;;11.18;;
64795;SDS011;51229;51.980;6.722;2023-03-03T07:35:59;26.40;;;11.05;;
64795;SDS011;51229;51.980;6.722;2023-03-03T07:38:37;31.20;;;12.80;;
64795;SDS011;51229;51.980;6.722;2023-03-03T07:41:10;30.85;;;12.95;;
64795;SDS011;51229;51.980;6.722;2023-03-03T07:49:21;31.65;;;13.02;;
64795;SDS011;51229;51.980;6.722;2023-03-03T07:51:54;28.08;;;11.65;;
64795;SDS011;51229;51.980;6.722;2023-03-03T07:54:26;30.95;;;12.40;;
64795;SDS011;51229;51.980;6.722;2023-03-03T07:56:58;31.92;;;13.15;;
64795;SDS011;51229;51.980;6.722;2023-03-03T07:59:30;32.65;;;13.20;;
64795;SDS011;51229;51.980;6.722;2023-03-03T08:02:00;32.25;;;13.05;;
64795;SDS011;51229;51.980;6.722;2023-03-03T08:04:43;28.90;;;12.82;;
64795;SDS011;51229;51.980;6.722;2023-03-03T08:07:21;28.90;;;11.88;;
64795;SDS011;51229;51.980;6.722;2023-03-03T08:09:48;30.45;;;12.63;;
64795;SDS011;51229;51.980;6.722;2023-03-03T08:14:53;31.13;;;12.05;;
64795;SDS011;51229;51.980;6.722;2023-03-03T08:17:22;32.80;;;13.90;;
64795;SDS011;51229;51.980;6.722;2023-03-03T08:19:50;32.05;;;12.63;;
64795;SDS011;51229;51.980;6.722;2023-03-03T08:22:18;28.23;;;11.38;;
64795;SDS011;51229;51.980;6.722;2023-03-03T08:25:04;29.17;;;12.55;;
64795;SDS011;51229;51.980;6.722;2023-03-03T08:27:30;30.98;;;13.18;;
64795;SDS011;51229;51.980;6.722;2023-03-03T08:29:55;35.90;;;13.45;;
64795;SDS011;51229;51.980;6.722;2023-03-03T08:32:21;31.00;;;12.88;;
64795;SDS011;51229;51.980;6.722;2023-03-03T08:34:47;27.58;;;10.68;;
64795;SDS011;51229;51.980;6.722;2023-03-03T08:37:12;32.65;;;14.07;;
64795;SDS011;51229;51.980;6.722;2023-03-03T08:39:38;37.55;;;12.68;;
64795;SDS011;51229;51.980;6.722;2023-03-03T08:42:04;29.88;;;12.55;;
64795;SDS011;51229;51.980;6.722;2023-03-03T08:44:29;30.58;;;12.80;;
64795;SDS011;51229;51.980;6.722;2023-03-03T08:46:55;28.48;;;11.75;;
64795;SDS011;51229;51.980;6.722;2023-03-03T08:49:21;30.88;;;11.23;;
64795;SDS011;51229;51.980;6.722;2023-03-03T08:51:46;33.22;;;13.40;;
64795;SDS011;51229;51.980;6.722;2023-03-03T08:54:13;27.67;;;12.13;;
64795;SDS011;51229;51.980;6.722;2023-03-03T08:56:39;30.92;;;13.20;;
64795;SDS011;51229;51.980;6.722;2023-03-03T08:59:04;31.67;;;13.18;;
64795;SDS011;51229;51.980;6.722;2023-03-03T09:01:30;31.25;;;13.57;;
64795;SDS011;51229;51.980;6.722;2023-03-03T09:03:56;31.95;;;13.43;;
64795;SDS011;51229;51.980;6.722;2023-03-03T09:06:23;28.38;;;11.60;;
64795;SDS011;51229;51.980;6.722;2023-03-03T09:08:49;29.48;;;13.05;;
64795;SDS011;51229;51.980;6.722;2023-03-03T09:11:18;29.02;;;11.13;;
64795;SDS011;51229;51.980;6.722;2023-03-03T09:13:49;28.33;;;12.25;;
64795;SDS011;51229;51.980;6.722;2023-03-03T09:16:17;30.33;;;12.85;;
64795;SDS011;51229;51.980;6.722;2023-03-03T09:18:45;29.95;;;12.73;;
64795;SDS011;51229;51.980;6.722;2023-03-03T09:21:15;30.15;;;12.70;;
64795;SDS011;51229;51.980;6.722;2023-03-03T09:23:54;31.58;;;13.27;;
64795;SDS011;51229;51.980;6.722;2023-03-03T09:31:41;35.40;;;13.52;;
64795;SDS011;51229;51.980;6.722;2023-03-03T09:36:49;31.25;;;12.57;;
64795;SDS011;51229;51.980;6.722;2023-03-03T09:39:21;38.05;;;13.93;;
64795;SDS011;51229;51.980;6.722;2023-03-03T09:41:54;33.80;;;13.52;;
64795;SDS011;51229;51.980;6.722;2023-03-03T09:47:56;35.65;;;14.05;;
64795;SDS011;51229;51.980;6.722;2023-03-03T09:50:17;29.83;;;11.90;;
64795;SDS011;51229;51.980;6.722;2023-03-03T09:53:18;31.58;;;12.05;;
64795;SDS011;51229;51.980;6.722;2023-03-03T09:56:14;33.58;;;13.60;;
64795;SDS011;51229;51.980;6.722;2023-03-03T10:12:57;33.45;;;14.27;;
64795;SDS011;51229;51.980;6.722;2023-03-03T10:21:22;33.55;;;13.52;;
64795;SDS011;51229;51.980;6.722;2023-03-03T10:26:47;35.50;;;14.05;;
64795;SDS011;51229;51.980;6.722;2023-03-03T10:30:06;36.33;;;14.25;;
64795;SDS011;51229;51.980;6.722;2023-03-03T10:38:43;34.47;;;14.68;;
64795;SDS011;51229;51.980;6.722;2023-03-03T10:41:33;33.17;;;14.32;;
64795;SDS011;51229;51.980;6.722;2023-03-03T10:44:28;34.75;;;14.38;;
64795;SDS011;51229;51.980;6.722;2023-03-03T10:50:10;34.25;;;13.45;;
64795;SDS011;51229;51.980;6.722;2023-03-03T10:55:54;34.70;;;14.13;;
64795;SDS011;51229;51.980;6.722;2023-03-03T10:58:45;33.00;;;14.45;;
64795;SDS011;51229;51.980;6.722;2023-03-03T11:04:46;31.05;;;13.48;;
64795;SDS011;51229;51.980;6.722;2023-03-03T11:19:03;25.50;;;12.20;;
64795;SDS011;51229;51.980;6.722;2023-03-03T11:32:52;32.90;;;14.15;;
64795;SDS011;51229;51.980;6.722;2023-03-03T11:41:34;30.38;;;13.15;;
64795;SDS011;51229;51.980;6.722;2023-03-03T11:46:57;27.05;;;11.68;;
64795;SDS011;51229;51.980;6.722;2023-03-03T11:49:51;32.00;;;12.70;;
64795;SDS011;51229;51.980;6.722;2023-03-03T11:55:18;29.67;;;12.20;;
64795;SDS011;51229;51.980;6.722;2023-03-03T12:00:49;29.02;;;11.73;;
64795;SDS011;51229;51.980;6.722;2023-03-03T12:09:00;24.40;;;11.70;;
64795;SDS011;51229;51.980;6.722;2023-03-03T12:14:09;32.42;;;12.55;;
64795;SDS011;51229;51.980;6.722;2023-03-03T12:16:58;29.73;;;12.70;;
64795;SDS011;51229;51.980;6.722;2023-03-03T12:19:30;24.65;;;11.32;;
64795;SDS011;51229;51.980;6.722;2023-03-03T12:27:55;26.08;;;10.57;;
64795;SDS011;51229;51.980;6.722;2023-03-03T12:31:00;28.77;;;12.35;;
64795;SDS011;51229;51.980;6.722;2023-03-03T12:33:49;23.70;;;9.57;;
64795;SDS011;51229;51.980;6.722;2023-03-03T12:36:21;21.50;;;9.05;;
64795;SDS011;51229;51.980;6.722;2023-03-03T12:47:21;22.27;;;10.10;;
64795;SDS011;51229;51.980;6.722;2023-03-03T12:58:13;19.58;;;8.95;;
64795;SDS011;51229;51.980;6.722;2023-03-03T13:03:51;22.20;;;10.48;;
64795;SDS011;51229;51.980;6.722;2023-03-03T13:14:44;18.77;;;9.32;;
64795;SDS011;51229;51.980;6.722;2023-03-03T13:17:32;21.75;;;9.38;;
64795;SDS011;51229;51.980;6.722;2023-03-03T13:28:30;21.85;;;8.68;;
64795;SDS011;51229;51.980;6.722;2023-03-03T13:31:11;19.55;;;7.50;;
64795;SDS011;51229;51.980;6.722;2023-03-03T13:33:43;20.83;;;8.43;;
64795;SDS011;51229;51.980;6.722;2023-03-03T13:36:23;16.30;;;8.23;;
64795;SDS011;51229;51.980;6.722;2023-03-03T13:39:11;18.42;;;7.85;;
64795;SDS011;51229;51.980;6.722;2023-03-03T13:41:51;17.38;;;8.25;;
64795;SDS011;51229;51.980;6.722;2023-03-03T13:47:15;18.45;;;8.15;;
64795;SDS011;51229;51.980;6.722;2023-03-03T13:52:39;15.93;;;8.32;;
64795;SDS011;51229;51.980;6.722;2023-03-03T13:55:25;17.88;;;7.63;;
64795;SDS011;51229;51.980;6.722;2023-03-03T13:57:59;14.00;;;7.60;;
64795;SDS011;51229;51.980;6.722;2023-03-03T14:06:22;17.15;;;8.05;;
64795;SDS011;51229;51.980;6.722;2023-03-03T14:17:02;14.15;;;6.65;;
64795;SDS011;51229;51.980;6.722;2023-03-03T14:19:46;20.05;;;8.00;;
64795;SDS011;51229;51.980;6.722;2023-03-03T14:25:11;15.73;;;7.28;;
64795;SDS011;51229;51.980;6.722;2023-03-03T14:33:20;13.50;;;6.93;;
64795;SDS011;51229;51.980;6.722;2023-03-03T14:38:50;15.02;;;7.03;;
64795;SDS011;51229;51.980;6.722;2023-03-03T14:41:20;13.38;;;6.35;;
64795;SDS011;51229;51.980;6.722;2023-03-03T14:44:01;14.85;;;7.13;;
64795;SDS011;51229;51.980;6.722;2023-03-03T14:46:46;12.82;;;6.07;;
64795;SDS011;51229;51.980;6.722;2023-03-03T14:49:43;11.38;;;5.80;;
64795;SDS011;51229;51.980;6.722;2023-03-03T14:54:45;11.70;;;6.07;;
64795;SDS011;51229;51.980;6.722;2023-03-03T14:57:36;11.35;;;5.95;;
64795;SDS011;51229;51.980;6.722;2023-03-03T15:05:47;11.60;;;5.50;;
64795;SDS011;51229;51.980;6.722;2023-03-03T15:08:22;11.48;;;5.90;;
64795;SDS011;51229;51.980;6.722;2023-03-03T15:11:10;12.43;;;5.95;;
64795;SDS011;51229;51.980;6.722;2023-03-03T15:13:38;13.65;;;5.72;;
64795;SDS011;51229;51.980;6.722;2023-03-03T15:16:08;12.48;;;5.32;;
64795;SDS011;51229;51.980;6.722;2023-03-03T15:18:49;11.47;;;4.77;;
64795;SDS011;51229;51.980;6.722;2023-03-03T15:21:33;8.25;;;4.07;;
64795;SDS011;51229;51.980;6.722;2023-03-03T15:24:06;7.10;;;3.83;;
64795;SDS011;51229;51.980;6.722;2023-03-03T15:37:52;5.72;;;2.95;;
64795;SDS011;51229;51.980;6.722;2023-03-03T15:40:27;6.38;;;3.38;;
64795;SDS011;51229;51.980;6.722;2023-03-03T15:43:40;5.88;;;3.20;;
64795;SDS011;51229;51.980;6.722;2023-03-03T15:52:01;8.05;;;3.05;;
64795;SDS011;51229;51.980;6.722;2023-03-03T16:00:31;6.57;;;3.00;;
64795;SDS011;51229;51.980;6.722;2023-03-03T16:03:23;6.75;;;3.10;;
64795;SDS011;51229;51.980;6.722;2023-03-03T16:09:05;5.03;;;3.22;;
64795;SDS011;51229;51.980;6.722;2023-03-03T16:14:44;6.22;;;3.10;;
64795;SDS011;51229;51.980;6.722;2023-03-03T16:17:37;5.60;;;2.70;;
64795;SDS011;51229;51.980;6.722;2023-03-03T16:23:27;6.15;;;2.78;;
64795;SDS011;51229;51.980;6.722;2023-03-03T16:34:44;8.63;;;2.65;;
64795;SDS011;51229;51.980;6.722;2023-03-03T16:37:31;6.38;;;2.95;;
64795;SDS011;51229;51.980;6.722;2023-03-03T16:42:43;5.80;;;2.30;;
64795;SDS011;51229;51.980;6.722;2023-03-03T16:45:26;7.05;;;2.90;;
64795;SDS011;51229;51.980;6.722;2023-03-03T16:50:47;5.80;;;2.88;;
64795;SDS011;51229;51.980;6.722;2023-03-03T17:03:47;5.97;;;3.10;;
64795;SDS011;51229;51.980;6.722;2023-03-03T17:06:26;7.07;;;3.90;;
64795;SDS011;51229;51.980;6.722;2023-03-03T17:11:59;8.27;;;4.57;;
64795;SDS011;51229;51.980;6.722;2023-03-03T17:15:06;8.07;;;3.95;;
64795;SDS011;51229;51.980;6.722;2023-03-03T17:20:18;5.05;;;3.22;;
64795;SDS011;51229;51.980;6.722;2023-03-03T17:23:12;14.02;;;7.88;;
64795;SDS011;51229;51.980;6.722;2023-03-03T17:39:34;10.52;;;3.90;;
64795;SDS011;51229;51.980;6.722;2023-03-03T17:42:20;11.27;;;4.57;;
64795;SDS011;51229;51.980;6.722;2023-03-03T17:45:10;7.28;;;4.47;;
64795;SDS011;51229;51.980;6.722;2023-03-03T17:50:29;7.15;;;4.20;;
64795;SDS011;51229;51.980;6.722;2023-03-03T18:01:37;8.77;;;4.75;;
64795;SDS011;51229;51.980;6.722;2023-03-03T18:07:06;7.75;;;4.03;;
64795;SDS011;51229;51.980;6.722;2023-03-03T18:12:41;7.93;;;3.83;;
64795;SDS011;51229;51.980;6.722;2023-03-03T18:15:43;7.03;;;3.70;;
64795;SDS011;51229;51.980;6.722;2023-03-03T18:18:28;9.00;;;4.55;;
64795;SDS011;51229;51.980;6.722;2023-03-03T18:21:37;9.75;;;4.93;;
64795;SDS011;51229;51.980;6.722;2023-03-03T18:26:52;5.78;;;3.30;;
64795;SDS011;51229;51.980;6.722;2023-03-03T18:29:23;7.05;;;3.38;;
64795;SDS011;51229;51.980;6.722;2023-03-03T18:36:50;4.22;;;2.70;;
64795;SDS011;51229;51.980;6.722;2023-03-03T18:39:45;4.50;;;2.70;;
64795;SDS011;51229;51.980;6.722;2023-03-03T18:44:50;5.88;;;2.58;;
64795;SDS011;51229;51.980;6.722;2023-03-03T18:47:16;4.68;;;2.67;;
64795;SDS011;51229;51.980;6.722;2023-03-03T18:52:28;5.45;;;2.60;;
64795;SDS011;51229;51.980;6.722;2023-03-03T18:57:33;4.20;;;3.00;;
64795;SDS011;51229;51.980;6.722;2023-03-03T19:00:35;7.40;;;3.95;;
64795;SDS011;51229;51.980;6.722;2023-03-03T19:02:54;11.13;;;4.97;;
64795;SDS011;51229;51.980;6.722;2023-03-03T19:05:23;7.82;;;3.20;;
64795;SDS011;51229;51.980;6.722;2023-03-03T19:08:02;4.70;;;3.05;;
64795;SDS011;51229;51.980;6.722;2023-03-03T19:16:02;6.80;;;3.00;;
64795;SDS011;51229;51.980;6.722;2023-03-03T19:18:30;5.72;;;3.10;;
64795;SDS011;51229;51.980;6.722;2023-03-03T19:37:03;7.63;;;3.30;;
64795;SDS011;51229;51.980;6.722;2023-03-03T19:39:48;5.88;;;3.40;;
64795;SDS011;51229;51.980;6.722;2023-03-03T19:42:38;5.75;;;3.10;;
64795;SDS011;51229;51.980;6.722;2023-03-03T19:51:06;6.75;;;3.08;;
64795;SDS011;51229;51.980;6.722;2023-03-03T19:53:36;13.20;;;5.10;;
64795;SDS011;51229;51.980;6.722;2023-03-03T20:01:54;9.77;;;4.45;;
64795;SDS011;51229;51.980;6.722;2023-03-03T20:07:26;7.68;;;2.78;;
64795;SDS011;51229;51.980;6.722;2023-03-03T20:13:02;12.48;;;4.30;;
64795;SDS011;51229;51.980;6.722;2023-03-03T20:15:49;14.40;;;4.70;;
64795;SDS011;51229;51.980;6.722;2023-03-03T20:21:18;11.18;;;3.50;;
64795;SDS011;51229;51.980;6.722;2023-03-03T20:24:07;10.30;;;3.33;;
64795;SDS011;51229;51.980;6.722;2023-03-03T20:32:22;13.40;;;3.60;;
64795;SDS011;51229;51.980;6.722;2023-03-03T20:40:58;10.15;;;3.60;;
64795;SDS011;51229;51.980;6.722;2023-03-03T20:46:14;11.75;;;3.30;;
64795;SDS011;51229;51.980;6.722;2023-03-03T20:49:13;11.65;;;3.80;;
64795;SDS011;51229;51.980;6.722;2023-03-03T20:51:57;11.23;;;3.70;;
64795;SDS011;51229;51.980;6.722;2023-03-03T20:54:37;14.57;;;5.10;;
64795;SDS011;51229;51.980;6.722;2023-03-03T20:57:43;13.80;;;3.75;;
64795;SDS011;51229;51.980;6.722;2023-03-03T21:00:29;13.75;;;3.58;;
64795;SDS011;51229;51.980;6.722;2023-03-03T21:03:13;12.85;;;3.65;;
64795;SDS011;51229;51.980;6.722;2023-03-03T21:05:56;9.05;;;3.92;;
64795;SDS011;51229;51.980;6.722;2023-03-03T21:08:39;14.02;;;4.00;;
64795;SDS011;51229;51.980;6.722;2023-03-03T21:11:07;11.57;;;3.47;;